sensor_id;sensor_type;location;lat;lon;timestamp;pressure;altitude;pressure_sealevel;temperature;humidity
51333;BME280;37417;48.118;11.734;2023-04-01T00:00:47;94230.09;;;6.64;100.00
51333;BME280;37417;48.118;11.734;2023-04-01T00:03:13;94222.13;;;6.59;100.00
51333;BME280;37417;48.118;11.734;2023-04-01T00:05:38;94214.16;;;6.47;100.00
51333;BME280;37417;48.118;11.734;2023-04-01T00:08:03;94225.72;;;6.44;100.00
51333;BME280;37417;48.118;11.734;2023-04-01T00:10:29;94234.69;;;6.48;100.00
51333;BME280;37417;48.118;11.734;2023-04-01T00:12:54;94216.53;;;6.42;100.00
51333;BME280;37417;48.118;11.734;2023-04-01T00:15:20;94212.56;;;6.39;100.00
51333;BME280;37417;48.118;11.734;2023-04-01T00:17:45;94210.19;;;6.38;100.00
51333;BME280;37417;48.118;11.734;2023-04-01T00:20:11;94196.25;;;6.32;100.00
51333;BME280;37417;48.118;11.734;2023-04-01T00:22:37;94201.41;;;6.32;100.00
51333;BME280;37417;48.118;11.734;2023-04-01T00:25:04;94191.44;;;6.29;100.00
51333;BME280;37417;48.118;11.734;2023-04-01T00:27:29;94173.94;;;6.38;100.00
51333;BME280;37417;48.118;11.734;2023-04-01T00:29:55;94189.06;;;6.34;100.00
51333;BME280;37417;48.118;11.734;2023-04-01T00:32:20;94179.28;;;6.30;100.00
51333;BME280;37417;48.118;11.734;2023-04-01T00:34:45;94183.28;;;6.32;100.00
51333;BME280;37417;48.118;11.734;2023-04-01T00:37:11;94177.50;;;6.23;100.00
51333;BME280;37417;48.118;11.734;2023-04-01T00:39:36;94168.13;;;6.29;100.00
51333;BME280;37417;48.118;11.734;2023-04-01T00:42:02;94175.13;;;6.22;100.00
51333;BME280;37417;48.118;11.734;2023-04-01T00:44:30;94206.59;;;6.26;100.00
51333;BME280;37417;48.118;11.734;2023-04-01T00:46:57;94187.84;;;6.17;100.00
51333;BME280;37417;48.118;11.734;2023-04-01T00:49:26;94194.81;;;6.16;100.00
51333;BME280;37417;48.118;11.734;2023-04-01T00:51:54;94199.81;;;6.18;100.00
51333;BME280;37417;48.118;11.734;2023-04-01T00:54:22;94196.03;;;6.20;100.00
51333;BME280;37417;48.118;11.734;2023-04-01T00:57:10;94181.28;;;6.14;100.00
51333;BME280;37417;48.118;11.734;2023-04-01T00:59:41;94176.50;;;6.18;100.00
51333;BME280;37417;48.118;11.734;2023-04-01T01:02:10;94202.81;;;6.21;100.00
51333;BME280;37417;48.118;11.734;2023-04-01T01:04:36;94181.50;;;6.19;100.00
51333;BME280;37417;48.118;11.734;2023-04-01T01:18:09;94218.94;;;6.30;100.00
51333;BME280;37417;48.118;11.734;2023-04-01T01:29:27;94186.69;;;6.33;100.00
51333;BME280;37417;48.118;11.734;2023-04-01T01:37:14;94181.69;;;6.44;100.00
51333;BME280;37417;48.118;11.734;2023-04-01T01:39:43;94189.06;;;6.47;100.00
51333;BME280;37417;48.118;11.734;2023-04-01T01:42:12;94188.25;;;6.47;100.00
51333;BME280;37417;48.118;11.734;2023-04-01T01:44:41;94185.84;;;6.59;100.00
51333;BME280;37417;48.118;11.734;2023-04-01T01:47:09;94177.69;;;6.48;100.00
51333;BME280;37417;48.118;11.734;2023-04-01T01:49:36;94186.88;;;6.44;100.00
51333;BME280;37417;48.118;11.734;2023-04-01T01:52:02;94184.47;;;6.49;100.00
51333;BME280;37417;48.118;11.734;2023-04-01T01:54:27;94169.34;;;6.40;100.00
51333;BME280;37417;48.118;11.734;2023-04-01T01:57:01;94173.94;;;6.44;100.00
51333;BME280;37417;48.118;11.734;2023-04-01T01:59:30;94160.34;;;6.42;100.00
51333;BME280;37417;48.118;11.734;2023-04-01T02:01:56;94155.19;;;6.36;100.00
51333;BME280;37417;48.118;11.734;2023-04-01T02:04:24;94176.53;;;6.38;100.00
51333;BME280;37417;48.118;11.734;2023-04-01T02:06:58;94167.13;;;6.37;100.00
51333;BME280;37417;48.118;11.734;2023-04-01T02:09:26;94177.31;;;6.32;100.00
51333;BME280;37417;48.118;11.734;2023-04-01T02:11:56;94175.69;;;6.37;100.00
51333;BME280;37417;48.118;11.734;2023-04-01T02:17:18;94204.59;;;6.41;100.00
51333;BME280;37417;48.118;11.734;2023-04-01T02:19:51;94190.25;;;6.45;100.00
51333;BME280;37417;48.118;11.734;2023-04-01T02:22:22;94185.47;;;6.35;100.00
51333;BME280;37417;48.118;11.734;2023-04-01T02:24:50;94199.22;;;6.36;100.00
51333;BME280;37417;48.118;11.734;2023-04-01T02:27:17;94188.25;;;6.40;100.00
51333;BME280;37417;48.118;11.734;2023-04-01T02:29:44;94194.03;;;6.42;100.00
51333;BME280;37417;48.118;11.734;2023-04-01T02:32:09;94207.78;;;6.43;100.00
51333;BME280;37417;48.118;11.734;2023-04-01T02:34:35;94191.84;;;6.46;100.00
51333;BME280;37417;48.118;11.734;2023-04-01T02:37:01;94192.66;;;6.40;100.00
51333;BME280;37417;48.118;11.734;2023-04-01T02:39:27;94183.66;;;6.42;100.00
51333;BME280;37417;48.118;11.734;2023-04-01T02:41:52;94176.69;;;6.43;100.00
51333;BME280;37417;48.118;11.734;2023-04-01T02:44:18;94184.66;;;6.41;100.00
51333;BME280;37417;48.118;11.734;2023-04-01T02:46:43;94189.66;;;6.43;100.00
51333;BME280;37417;48.118;11.734;2023-04-01T02:49:09;94193.44;;;6.40;100.00
51333;BME280;37417;48.118;11.734;2023-04-01T02:51:34;94199.81;;;6.44;100.00
51333;BME280;37417;48.118;11.734;2023-04-01T02:54:00;94196.63;;;6.42;100.00
51333;BME280;37417;48.118;11.734;2023-04-01T02:56:25;94204.19;;;6.37;100.00
51333;BME280;37417;48.118;11.734;2023-04-01T02:58:51;94211.97;;;6.37;100.00
51333;BME280;37417;48.118;11.734;2023-04-01T03:01:17;94203.00;;;6.40;100.00
51333;BME280;37417;48.118;11.734;2023-04-01T03:03:42;94204.19;;;6.37;100.00
51333;BME280;37417;48.118;11.734;2023-04-01T03:06:13;94207.97;;;6.41;100.00
51333;BME280;37417;48.118;11.734;2023-04-01T03:08:39;94203.38;;;6.43;100.00
51333;BME280;37417;48.118;11.734;2023-04-01T03:11:04;94195.81;;;6.35;100.00
51333;BME280;37417;48.118;11.734;2023-04-01T03:13:31;94214.16;;;6.47;100.00
51333;BME280;37417;48.118;11.734;2023-04-01T03:15:56;94193.22;;;6.42;100.00
51333;BME280;37417;48.118;11.734;2023-04-01T03:18:22;94214.16;;;6.40;100.00
51333;BME280;37417;48.118;11.734;2023-04-01T03:20:47;94204.59;;;6.34;100.00
51333;BME280;37417;48.118;11.734;2023-04-01T03:23:13;94210.19;;;6.38;100.00
51333;BME280;37417;48.118;11.734;2023-04-01T03:25:38;94206.38;;;6.34;100.00
51333;BME280;37417;48.118;11.734;2023-04-01T03:28:04;94224.53;;;6.27;100.00
51333;BME280;37417;48.118;11.734;2023-04-01T03:30:29;94217.13;;;6.24;100.00
51333;BME280;37417;48.118;11.734;2023-04-01T03:32:56;94218.94;;;6.23;100.00
51333;BME280;37417;48.118;11.734;2023-04-01T03:35:22;94226.91;;;6.22;100.00
51333;BME280;37417;48.118;11.734;2023-04-01T03:37:47;94223.91;;;6.12;100.00
51333;BME280;37417;48.118;11.734;2023-04-01T03:40:12;94220.50;;;6.11;100.00
51333;BME280;37417;48.118;11.734;2023-04-01T03:42:38;94215.16;;;6.13;100.00
51333;BME280;37417;48.118;11.734;2023-04-01T03:45:04;94211.34;;;6.09;100.00
51333;BME280;37417;48.118;11.734;2023-04-01T03:47:30;94233.63;;;5.96;100.00
51333;BME280;37417;48.118;11.734;2023-04-01T03:49:55;94235.00;;;5.92;100.00
51333;BME280;37417;48.118;11.734;2023-04-01T03:52:20;94239.56;;;5.90;100.00
51333;BME280;37417;48.118;11.734;2023-04-01T03:54:46;94244.75;;;5.90;100.00
51333;BME280;37417;48.118;11.734;2023-04-01T03:57:11;94250.38;;;6.01;100.00
51333;BME280;37417;48.118;11.734;2023-04-01T03:59:37;94252.19;;;6.07;100.00
51333;BME280;37417;48.118;11.734;2023-04-01T04:02:02;94235.06;;;5.99;100.00
51333;BME280;37417;48.118;11.734;2023-04-01T04:04:28;94260.94;;;6.06;100.00
51333;BME280;37417;48.118;11.734;2023-04-01T04:06:54;94233.06;;;6.01;100.00
51333;BME280;37417;48.118;11.734;2023-04-01T04:09:19;94239.81;;;5.95;100.00
51333;BME280;37417;48.118;11.734;2023-04-01T04:11:45;94232.41;;;5.92;100.00
51333;BME280;37417;48.118;11.734;2023-04-01T04:14:10;94238.38;;;5.86;100.00
51333;BME280;37417;48.118;11.734;2023-04-01T04:16:36;94246.69;;;5.75;100.00
51333;BME280;37417;48.118;11.734;2023-04-01T04:19:03;94236.16;;;5.77;100.00
51333;BME280;37417;48.118;11.734;2023-04-01T04:21:28;94239.16;;;5.80;100.00
51333;BME280;37417;48.118;11.734;2023-04-01T04:23:54;94251.50;;;5.85;100.00
51333;BME280;37417;48.118;11.734;2023-04-01T04:26:19;94241.09;;;5.71;100.00
51333;BME280;37417;48.118;11.734;2023-04-01T04:28:45;94242.72;;;5.79;100.00
51333;BME280;37417;48.118;11.734;2023-04-01T04:31:10;94260.84;;;5.86;100.00
51333;BME280;37417;48.118;11.734;2023-04-01T04:33:35;94255.47;;;5.74;100.00
51333;BME280;37417;48.118;11.734;2023-04-01T04:36:01;94243.53;;;5.80;100.00
51333;BME280;37417;48.118;11.734;2023-04-01T04:38:27;94255.66;;;5.79;100.00
51333;BME280;37417;48.118;11.734;2023-04-01T04:40:53;94258.25;;;5.79;100.00
51333;BME280;37417;48.118;11.734;2023-04-01T04:43:19;94258.88;;;5.81;100.00
51333;BME280;37417;48.118;11.734;2023-04-01T04:45:45;94250.69;;;5.84;100.00
51333;BME280;37417;48.118;11.734;2023-04-01T04:48:11;94265.44;;;5.90;100.00
51333;BME280;37417;48.118;11.734;2023-04-01T04:50:41;94258.25;;;5.86;100.00
51333;BME280;37417;48.118;11.734;2023-04-01T04:53:09;94260.66;;;5.87;100.00
51333;BME280;37417;48.118;11.734;2023-04-01T04:55:35;94267.69;;;5.93;100.00
51333;BME280;37417;48.118;11.734;2023-04-01T04:58:00;94264.69;;;5.96;100.00
51333;BME280;37417;48.118;11.734;2023-04-01T05:00:26;94264.09;;;5.94;100.00
51333;BME280;37417;48.118;11.734;2023-04-01T05:02:51;94257.13;;;5.95;100.00
51333;BME280;37417;48.118;11.734;2023-04-01T05:05:17;94267.50;;;6.02;100.00
51333;BME280;37417;48.118;11.734;2023-04-01T05:07:42;94268.31;;;6.09;100.00
51333;BME280;37417;48.118;11.734;2023-04-01T05:10:08;94272.28;;;6.11;100.00
51333;BME280;37417;48.118;11.734;2023-04-01T05:12:33;94249.00;;;6.18;100.00
51333;BME280;37417;48.118;11.734;2023-04-01T05:15:07;94262.94;;;6.17;100.00
51333;BME280;37417;48.118;11.734;2023-04-01T05:17:32;94266.53;;;6.22;100.00
51333;BME280;37417;48.118;11.734;2023-04-01T05:19:58;94270.31;;;6.20;100.00
51333;BME280;37417;48.118;11.734;2023-04-01T05:22:23;94258.41;;;6.32;100.00
51333;BME280;37417;48.118;11.734;2023-04-01T05:24:49;94261.16;;;6.44;100.00
51333;BME280;37417;48.118;11.734;2023-04-01T05:27:14;94261.56;;;6.41;100.00
51333;BME280;37417;48.118;11.734;2023-04-01T05:29:40;94254.22;;;6.38;100.00
51333;BME280;37417;48.118;11.734;2023-04-01T05:32:05;94255.97;;;6.37;100.00
51333;BME280;37417;48.118;11.734;2023-04-01T05:34:31;94267.75;;;6.46;100.00
51333;BME280;37417;48.118;11.734;2023-04-01T05:36:56;94261.78;;;6.59;100.00
51333;BME280;37417;48.118;11.734;2023-04-01T05:39:21;94255.81;;;6.59;100.00
51333;BME280;37417;48.118;11.734;2023-04-01T05:41:47;94272.34;;;6.64;100.00
51333;BME280;37417;48.118;11.734;2023-04-01T05:44:12;94260.97;;;6.72;100.00
51333;BME280;37417;48.118;11.734;2023-04-01T05:46:37;94259.97;;;6.73;100.00
51333;BME280;37417;48.118;11.734;2023-04-01T05:49:03;94280.31;;;6.76;100.00
51333;BME280;37417;48.118;11.734;2023-04-01T05:51:28;94252.63;;;6.76;100.00
51333;BME280;37417;48.118;11.734;2023-04-01T05:53:53;94277.72;;;7.02;100.00
51333;BME280;37417;48.118;11.734;2023-04-01T05:56:19;94274.47;;;7.14;100.00
51333;BME280;37417;48.118;11.734;2023-04-01T05:58:50;94269.28;;;7.14;100.00
51333;BME280;37417;48.118;11.734;2023-04-01T06:01:15;94249.28;;;7.41;100.00
51333;BME280;37417;48.118;11.734;2023-04-01T06:03:41;94266.44;;;7.48;100.00
51333;BME280;37417;48.118;11.734;2023-04-01T06:06:13;94256.50;;;7.77;100.00
51333;BME280;37417;48.118;11.734;2023-04-01T06:08:40;94248.25;;;7.48;100.00
51333;BME280;37417;48.118;11.734;2023-04-01T06:11:31;94247.44;;;7.54;100.00
51333;BME280;37417;48.118;11.734;2023-04-01T06:25:03;94278.97;;;8.41;100.00
51333;BME280;37417;48.118;11.734;2023-04-01T06:38:38;94275.75;;;8.07;100.00
51333;BME280;37417;48.118;11.734;2023-04-01T06:41:14;94280.38;;;8.30;100.00
51333;BME280;37417;48.118;11.734;2023-04-01T06:50:05;94289.78;;;8.38;100.00
51333;BME280;37417;48.118;11.734;2023-04-01T06:52:46;94273.41;;;8.31;100.00
51333;BME280;37417;48.118;11.734;2023-04-01T06:55:23;94268.50;;;8.16;100.00
51333;BME280;37417;48.118;11.734;2023-04-01T06:57:55;94268.84;;;8.58;100.00
51333;BME280;37417;48.118;11.734;2023-04-01T07:00:27;94256.38;;;8.35;100.00
51333;BME280;37417;48.118;11.734;2023-04-01T07:03:02;94277.78;;;8.37;100.00
51333;BME280;37417;48.118;11.734;2023-04-01T07:05:32;94282.31;;;8.48;100.00
51333;BME280;37417;48.118;11.734;2023-04-01T07:08:02;94283.78;;;8.37;100.00
51333;BME280;37417;48.118;11.734;2023-04-01T07:10:48;94293.31;;;8.50;100.00
51333;BME280;37417;48.118;11.734;2023-04-01T07:13:31;94282.78;;;8.38;100.00
51333;BME280;37417;48.118;11.734;2023-04-01T07:16:11;94285.81;;;8.29;100.00
51333;BME280;37417;48.118;11.734;2023-04-01T07:18:54;94289.22;;;8.23;100.00
51333;BME280;37417;48.118;11.734;2023-04-01T07:21:26;94276.94;;;8.11;100.00
51333;BME280;37417;48.118;11.734;2023-04-01T07:23:54;94297.94;;;8.03;100.00
51333;BME280;37417;48.118;11.734;2023-04-01T07:26:23;94270.22;;;8.29;100.00
51333;BME280;37417;48.118;11.734;2023-04-01T07:28:52;94282.00;;;8.38;100.00
51333;BME280;37417;48.118;11.734;2023-04-01T07:34:08;94292.19;;;8.33;100.00
51333;BME280;37417;48.118;11.734;2023-04-01T07:36:48;94271.44;;;8.26;100.00
51333;BME280;37417;48.118;11.734;2023-04-01T07:39:34;94289.13;;;8.43;99.88
51333;BME280;37417;48.118;11.734;2023-04-01T07:42:12;94287.56;;;8.66;98.51
51333;BME280;37417;48.118;11.734;2023-04-01T07:47:48;94279.63;;;8.23;98.86
51333;BME280;37417;48.118;11.734;2023-04-01T07:50:32;94284.13;;;8.73;99.08
51333;BME280;37417;48.118;11.734;2023-04-01T08:01:12;94285.91;;;8.47;98.47
51333;BME280;37417;48.118;11.734;2023-04-01T08:06:41;94282.03;;;8.56;98.04
51333;BME280;37417;48.118;11.734;2023-04-01T08:09:33;94277.19;;;8.66;97.57
51333;BME280;37417;48.118;11.734;2023-04-01T08:15:14;94293.84;;;8.84;96.91
51333;BME280;37417;48.118;11.734;2023-04-01T08:18:09;94292.16;;;8.71;99.16
51333;BME280;37417;48.118;11.734;2023-04-01T08:20:47;94288.16;;;8.93;98.11
51333;BME280;37417;48.118;11.734;2023-04-01T08:23:17;94279.59;;;9.11;98.71
51333;BME280;37417;48.118;11.734;2023-04-01T08:26:34;94289.28;;;8.79;96.33
51333;BME280;37417;48.118;11.734;2023-04-01T08:29:10;94299.50;;;8.74;96.53
51333;BME280;37417;48.118;11.734;2023-04-01T08:31:44;94266.78;;;8.91;96.85
51333;BME280;37417;48.118;11.734;2023-04-01T08:34:16;94288.16;;;8.93;94.17
51333;BME280;37417;48.118;11.734;2023-04-01T08:36:47;94288.63;;;9.09;94.58
51333;BME280;37417;48.118;11.734;2023-04-01T08:39:19;94272.03;;;9.28;92.84
51333;BME280;37417;48.118;11.734;2023-04-01T08:56:38;94272.56;;;10.03;88.83
51333;BME280;37417;48.118;11.734;2023-04-01T08:59:27;94273.34;;;10.04;87.04
51333;BME280;37417;48.118;11.734;2023-04-01T09:02:33;94250.88;;;9.91;84.24
51333;BME280;37417;48.118;11.734;2023-04-01T09:05:26;94269.75;;;10.89;83.45
51333;BME280;37417;48.118;11.734;2023-04-01T09:08:00;94256.13;;;10.87;82.55
51333;BME280;37417;48.118;11.734;2023-04-01T09:10:55;94263.19;;;10.33;82.73
51333;BME280;37417;48.118;11.734;2023-04-01T09:13:38;94262.75;;;10.17;83.81
51333;BME280;37417;48.118;11.734;2023-04-01T09:16:26;94265.56;;;11.23;83.22
51333;BME280;37417;48.118;11.734;2023-04-01T09:19:11;94235.25;;;10.75;80.24
51333;BME280;37417;48.118;11.734;2023-04-01T09:30:17;94271.47;;;12.51;68.64
51333;BME280;37417;48.118;11.734;2023-04-01T09:36:07;94257.84;;;11.04;72.73
51333;BME280;37417;48.118;11.734;2023-04-01T09:38:42;94215.09;;;10.82;74.63
51333;BME280;37417;48.118;11.734;2023-04-01T09:44:30;94236.50;;;10.61;78.83
51333;BME280;37417;48.118;11.734;2023-04-01T09:52:38;94209.97;;;10.64;76.02
51333;BME280;37417;48.118;11.734;2023-04-01T09:56:42;94224.38;;;10.78;76.21
51333;BME280;37417;48.118;11.734;2023-04-01T10:13:02;94231.47;;;12.22;69.44
51333;BME280;37417;48.118;11.734;2023-04-01T10:15:49;94217.78;;;11.86;69.54
51333;BME280;37417;48.118;11.734;2023-04-01T10:18:47;94221.66;;;12.12;71.04
51333;BME280;37417;48.118;11.734;2023-04-01T10:24:33;94195.63;;;11.36;70.65
51333;BME280;37417;48.118;11.734;2023-04-01T10:27:21;94225.94;;;11.14;70.89
51333;BME280;37417;48.118;11.734;2023-04-01T10:33:23;94215.88;;;11.06;72.67
51333;BME280;37417;48.118;11.734;2023-04-01T10:42:20;94248.75;;;11.07;69.95
51333;BME280;37417;48.118;11.734;2023-04-01T10:45:20;94227.91;;;10.95;71.87
51333;BME280;37417;48.118;11.734;2023-04-01T10:48:17;94208.16;;;10.88;72.54
51333;BME280;37417;48.118;11.734;2023-04-01T10:56:34;94201.66;;;10.32;74.56
51333;BME280;37417;48.118;11.734;2023-04-01T11:29:50;94257.94;;;9.36;91.22
51333;BME280;37417;48.118;11.734;2023-04-01T11:32:43;94235.00;;;9.26;94.72
51333;BME280;37417;48.118;11.734;2023-04-01T11:35:38;94248.81;;;9.27;93.01
51333;BME280;37417;48.118;11.734;2023-04-01T11:43:45;94261.09;;;9.93;92.99
51333;BME280;37417;48.118;11.734;2023-04-01T11:46:23;94258.03;;;9.96;94.19
51333;BME280;37417;48.118;11.734;2023-04-01T12:00:18;94296.56;;;8.95;100.00
51333;BME280;37417;48.118;11.734;2023-04-01T12:03:17;94275.34;;;8.42;100.00
51333;BME280;37417;48.118;11.734;2023-04-01T12:05:48;94286.84;;;7.83;100.00
51333;BME280;37417;48.118;11.734;2023-04-01T12:11:07;94290.03;;;7.78;100.00
51333;BME280;37417;48.118;11.734;2023-04-01T12:19:48;94267.28;;;7.29;100.00
51333;BME280;37417;48.118;11.734;2023-04-01T12:22:25;94308.78;;;7.22;100.00
51333;BME280;37417;48.118;11.734;2023-04-01T12:25:03;94296.84;;;7.21;100.00
51333;BME280;37417;48.118;11.734;2023-04-01T12:30:20;94305.19;;;7.30;100.00
51333;BME280;37417;48.118;11.734;2023-04-01T12:33:04;94305.22;;;7.17;100.00
51333;BME280;37417;48.118;11.734;2023-04-01T12:43:42;94328.94;;;6.87;100.00
51333;BME280;37417;48.118;11.734;2023-04-01T12:52:11;94302.03;;;6.75;100.00
51333;BME280;37417;48.118;11.734;2023-04-01T12:57:50;94309.78;;;6.48;100.00
51333;BME280;37417;48.118;11.734;2023-04-01T13:03:10;94312.97;;;6.37;100.00
51333;BME280;37417;48.118;11.734;2023-04-01T13:08:38;94311.00;;;6.39;100.00
51333;BME280;37417;48.118;11.734;2023-04-01T13:17:18;94324.16;;;6.38;100.00
51333;BME280;37417;48.118;11.734;2023-04-01T13:22:41;94312.97;;;6.37;100.00
51333;BME280;37417;48.118;11.734;2023-04-01T13:27:57;94332.88;;;6.37;100.00
51333;BME280;37417;48.118;11.734;2023-04-01T13:33:30;94324.13;;;6.31;100.00
51333;BME280;37417;48.118;11.734;2023-04-01T13:41:58;94326.91;;;6.36;100.00
51333;BME280;37417;48.118;11.734;2023-04-01T13:44:43;94326.34;;;6.47;100.00
51333;BME280;37417;48.118;11.734;2023-04-01T13:47:29;94326.75;;;6.64;100.00
51333;BME280;37417;48.118;11.734;2023-04-01T13:58:53;94322.38;;;6.98;100.00
51333;BME280;37417;48.118;11.734;2023-04-01T14:01:41;94322.16;;;7.06;100.00
51333;BME280;37417;48.118;11.734;2023-04-01T14:09:52;94300.19;;;7.35;100.00
51333;BME280;37417;48.118;11.734;2023-04-01T14:18:32;94316.19;;;7.83;100.00
51333;BME280;37417;48.118;11.734;2023-04-01T14:27:09;94323.69;;;7.47;100.00
51333;BME280;37417;48.118;11.734;2023-04-01T14:32:10;94302.59;;;7.23;100.00
51333;BME280;37417;48.118;11.734;2023-04-01T14:40:45;94324.16;;;7.24;100.00
51333;BME280;37417;48.118;11.734;2023-04-01T14:43:40;94327.31;;;7.39;100.00
51333;BME280;37417;48.118;11.734;2023-04-01T14:46:22;94313.09;;;7.55;100.00
51333;BME280;37417;48.118;11.734;2023-04-01T14:49:05;94346.41;;;7.65;100.00
51333;BME280;37417;48.118;11.734;2023-04-01T14:51:40;94316.03;;;7.72;100.00
51333;BME280;37417;48.118;11.734;2023-04-01T14:56:40;94322.03;;;7.66;100.00
51333;BME280;37417;48.118;11.734;2023-04-01T14:59:26;94326.03;;;7.68;100.00
51333;BME280;37417;48.118;11.734;2023-04-01T15:07:19;94344.84;;;7.50;100.00
51333;BME280;37417;48.118;11.734;2023-04-01T15:12:30;94324.50;;;7.54;100.00
51333;BME280;37417;48.118;11.734;2023-04-01T15:18:09;94325.84;;;7.70;100.00
51333;BME280;37417;48.118;11.734;2023-04-01T15:21:04;94336.41;;;7.75;100.00
51333;BME280;37417;48.118;11.734;2023-04-01T15:26:19;94336.41;;;7.75;100.00
51333;BME280;37417;48.118;11.734;2023-04-01T15:29:06;94337.63;;;7.59;100.00
51333;BME280;37417;48.118;11.734;2023-04-01T15:31:47;94340.06;;;7.47;100.00
51333;BME280;37417;48.118;11.734;2023-04-01T15:34:56;94344.88;;;7.44;100.00
51333;BME280;37417;48.118;11.734;2023-04-01T15:46:09;94332.25;;;7.67;100.00
51333;BME280;37417;48.118;11.734;2023-04-01T15:48:53;94343.59;;;7.79;100.00
51333;BME280;37417;48.118;11.734;2023-04-01T15:51:42;94337.13;;;7.95;100.00
51333;BME280;37417;48.118;11.734;2023-04-01T15:59:28;94352.00;;;8.20;100.00
51333;BME280;37417;48.118;11.734;2023-04-01T16:02:13;94351.75;;;8.28;100.00
51333;BME280;37417;48.118;11.734;2023-04-01T16:10:23;94353.13;;;8.37;100.00
51333;BME280;37417;48.118;11.734;2023-04-01T16:26:12;94341.69;;;8.51;100.00
51333;BME280;37417;48.118;11.734;2023-04-01T16:28:50;94347.25;;;8.55;100.00
51333;BME280;37417;48.118;11.734;2023-04-01T16:31:32;94340.09;;;8.50;100.00
51333;BME280;37417;48.118;11.734;2023-04-01T16:34:10;94358.84;;;8.52;100.00
51333;BME280;37417;48.118;11.734;2023-04-01T16:36:48;94335.69;;;8.51;100.00
51333;BME280;37417;48.118;11.734;2023-04-01T16:39:27;94336.09;;;8.48;100.00
51333;BME280;37417;48.118;11.734;2023-04-01T16:47:53;94354.75;;;8.38;100.00
51333;BME280;37417;48.118;11.734;2023-04-01T16:50:21;94344.94;;;8.33;100.00
51333;BME280;37417;48.118;11.734;2023-04-01T16:56:10;94380.41;;;8.14;100.00
51333;BME280;37417;48.118;11.734;2023-04-01T16:58:41;94356.78;;;8.23;100.00
51333;BME280;37417;48.118;11.734;2023-04-01T17:01:19;94369.41;;;8.19;100.00
51333;BME280;37417;48.118;11.734;2023-04-01T17:03:52;94357.56;;;8.23;100.00
51333;BME280;37417;48.118;11.734;2023-04-01T17:09:09;94384.63;;;8.02;100.00
51333;BME280;37417;48.118;11.734;2023-04-01T17:11:50;94389.44;;;8.05;100.00
51333;BME280;37417;48.118;11.734;2023-04-01T17:14:28;94389.00;;;8.08;100.00
51333;BME280;37417;48.118;11.734;2023-04-01T17:17:09;94371.44;;;8.04;100.00
51333;BME280;37417;48.118;11.734;2023-04-01T17:28:15;94406.22;;;7.96;100.00
51333;BME280;37417;48.118;11.734;2023-04-01T17:30:58;94390.06;;;7.94;100.00
51333;BME280;37417;48.118;11.734;2023-04-01T17:41:59;94387.50;;;7.81;100.00
51333;BME280;37417;48.118;11.734;2023-04-01T17:50:23;94395.28;;;7.81;100.00
51333;BME280;37417;48.118;11.734;2023-04-01T17:53:03;94419.03;;;7.78;100.00
51333;BME280;37417;48.118;11.734;2023-04-01T17:55:43;94404.25;;;7.78;100.00
51333;BME280;37417;48.118;11.734;2023-04-01T17:58:50;94408.84;;;7.83;100.00
51333;BME280;37417;48.118;11.734;2023-04-01T18:01:29;94416.44;;;7.84;100.00
51333;BME280;37417;48.118;11.734;2023-04-01T18:04:29;94413.25;;;7.82;100.00
51333;BME280;37417;48.118;11.734;2023-04-01T18:07:09;94407.47;;;7.80;100.00
51333;BME280;37417;48.118;11.734;2023-04-01T18:18:44;94423.03;;;7.94;100.00
51333;BME280;37417;48.118;11.734;2023-04-01T18:23:58;94427.59;;;7.92;100.00
51333;BME280;37417;48.118;11.734;2023-04-01T18:26:35;94432.63;;;7.93;100.00
51333;BME280;37417;48.118;11.734;2023-04-01T18:29:26;94439.81;;;7.84;100.00
51333;BME280;37417;48.118;11.734;2023-04-01T18:35:19;94450.22;;;7.25;100.00
51333;BME280;37417;48.118;11.734;2023-04-01T18:43:27;94477.50;;;6.94;100.00
51333;BME280;37417;48.118;11.734;2023-04-01T18:46:07;94464.94;;;6.91;100.00
51333;BME280;37417;48.118;11.734;2023-04-01T18:54:02;94471.13;;;6.77;100.00
51333;BME280;37417;48.118;11.734;2023-04-01T18:56:46;94463.53;;;6.82;100.00
51333;BME280;37417;48.118;11.734;2023-04-01T18:59:38;94477.69;;;6.86;100.00
51333;BME280;37417;48.118;11.734;2023-04-01T19:02:34;94456.16;;;6.79;100.00
51333;BME280;37417;48.118;11.734;2023-04-01T19:05:08;94474.31;;;6.86;100.00
51333;BME280;37417;48.118;11.734;2023-04-01T19:07:53;94472.72;;;6.85;100.00
51333;BME280;37417;48.118;11.734;2023-04-01T19:10:40;94472.13;;;6.89;100.00
51333;BME280;37417;48.118;11.734;2023-04-01T19:13:16;94473.31;;;6.87;100.00
51333;BME280;37417;48.118;11.734;2023-04-01T19:18:55;94484.13;;;6.97;100.00
51333;BME280;37417;48.118;11.734;2023-04-01T19:21:30;94457.78;;;7.06;100.00
51333;BME280;37417;48.118;11.734;2023-04-01T19:29:51;94481.53;;;7.10;100.00
51333;BME280;37417;48.118;11.734;2023-04-01T19:32:39;94489.91;;;7.05;100.00
51333;BME280;37417;48.118;11.734;2023-04-01T19:38:05;94470.75;;;7.06;100.00
51333;BME280;37417;48.118;11.734;2023-04-01T19:40:57;94478.97;;;7.17;100.00
51333;BME280;37417;48.118;11.734;2023-04-01T19:54:25;94513.66;;;7.02;100.00
51333;BME280;37417;48.118;11.734;2023-04-01T19:59:47;94510.84;;;6.97;100.00
51333;BME280;37417;48.118;11.734;2023-04-01T20:02:55;94508.63;;;6.94;100.00
51333;BME280;37417;48.118;11.734;2023-04-01T20:08:15;94508.03;;;6.92;100.00
51333;BME280;37417;48.118;11.734;2023-04-01T20:11:20;94506.81;;;6.88;100.00
51333;BME280;37417;48.118;11.734;2023-04-01T20:14:00;94521.97;;;6.85;100.00
51333;BME280;37417;48.118;11.734;2023-04-01T20:19:12;94513.56;;;6.83;100.00
51333;BME280;37417;48.118;11.734;2023-04-01T20:21:45;94523.75;;;6.84;100.00
51333;BME280;37417;48.118;11.734;2023-04-01T20:24:23;94524.56;;;6.85;100.00
51333;BME280;37417;48.118;11.734;2023-04-01T20:26:59;94498.41;;;6.79;100.00